Aeroporto :
LOGIN :

Iscrizione | Disclaimer

   EN    FR    IT 

 










Sommario :    VFR   VFR Marginale   IFR   IFR Intensivo   IFR Molto Intensivo
Visibilità : 
Base nubi : 
>= 8 km
>= 3000ft
5 / 8 km
1000 / 3000 ft
1500m / 5 km
500 / 1000 ft
800 / 1500m
200 / 500 ft
< 800m
< 200 ft
Simboli :   Temporali  Nebbia  Neve Forte  Precipitazioni Forti  Vento > 20 kt
SIGMETs :   Varie  Temporali  Ghiacco  Turbolenza  Onda orograficha  Ceneri Vulcaniche






- Altitudine del aeroporto : 257 ft
- Codice IATA : MAN


EGCC - Manchester

ULTIMO METAR :
  • 241050Z 29005KT 9000 SCT005 BKN012 07/07 Q1023 TEMPO BKN015

METARs OBSOLETI :
  • 241020Z 30006KT 7000 SCT004 BKN016 07/07 Q1023
  • 240950Z 27005KT 4500 BR SCT004 BKN011 07/07 Q1023 REDZ
  • 240920Z 25005KT 2000 DZ BKN003 07/06 Q1023 REDZ
  • 240850Z AUTO 24004KT 210V270 2800 RADZ OVC003 07/06 Q1023
  • 240820Z 26003KT 4500 -DZ SCT004 BKN008 07/06 Q1023 TEMPO BKN004

TAF AMD TAF EGCC
Valido dal 24 a 10 ore il 25 a 12 ore UTC


241038Z 2410/2512 27004KT 6000 SCT012 BKN020
TEMPO 2410/2509 4000 -DZ BR BKN008
BECMG 2506/2509 19010KT 9999
ATIS : +44 161 499 2324



MetMap, La meteo Aeronautica in un colpo d'occhio ! - Copyright ORBIFLY Dicembre 2007 - Disclaimer

ORBIFLY MET'MAP TEAM :

Programmazione e sviluppo : Alexandra Zaïnal
Concezione : Baudouin d'Aumeries
Aiuto per la programmazione : Marc-Olivier Méhu
Supporto tecnico e logistico : Manuel Goepfert
Aiuto per la traduzione : Arnaldo La Scala

Contatto : metmap@orbifly.com




FONTI E CREDITI :

   NOAA